sensor_id;sensor_type;location;lat;lon;timestamp;P1;durP1;ratioP1;P2;durP2;ratioP2
78871;SDS011;68247;43.514;1.502;2024-01-15T00:01:54;12.67;;;5.60;;
78871;SDS011;68247;43.514;1.502;2024-01-15T00:04:19;15.23;;;6.37;;
78871;SDS011;68247;43.514;1.502;2024-01-15T00:06:45;13.47;;;6.13;;
78871;SDS011;68247;43.514;1.502;2024-01-15T00:09:10;14.33;;;6.60;;
78871;SDS011;68247;43.514;1.502;2024-01-15T00:11:36;10.18;;;5.82;;
78871;SDS011;68247;43.514;1.502;2024-01-15T00:14:01;11.30;;;5.53;;
78871;SDS011;68247;43.514;1.502;2024-01-15T00:16:28;10.35;;;5.70;;
78871;SDS011;68247;43.514;1.502;2024-01-15T00:18:53;10.53;;;5.57;;
78871;SDS011;68247;43.514;1.502;2024-01-15T00:21:18;11.67;;;5.83;;
78871;SDS011;68247;43.514;1.502;2024-01-15T00:23:44;11.60;;;4.93;;
78871;SDS011;68247;43.514;1.502;2024-01-15T00:26:10;13.02;;;5.55;;
78871;SDS011;68247;43.514;1.502;2024-01-15T00:28:36;14.67;;;6.00;;
78871;SDS011;68247;43.514;1.502;2024-01-15T00:31:01;13.15;;;5.57;;
78871;SDS011;68247;43.514;1.502;2024-01-15T00:33:27;10.63;;;5.77;;
78871;SDS011;68247;43.514;1.502;2024-01-15T00:35:52;9.70;;;5.37;;
78871;SDS011;68247;43.514;1.502;2024-01-15T00:38:17;12.27;;;6.07;;
78871;SDS011;68247;43.514;1.502;2024-01-15T00:40:43;12.53;;;5.97;;
78871;SDS011;68247;43.514;1.502;2024-01-15T00:43:08;12.57;;;6.43;;
78871;SDS011;68247;43.514;1.502;2024-01-15T00:45:34;14.33;;;6.57;;
78871;SDS011;68247;43.514;1.502;2024-01-15T00:47:59;14.33;;;7.27;;
78871;SDS011;68247;43.514;1.502;2024-01-15T00:50:26;13.10;;;7.18;;
78871;SDS011;68247;43.514;1.502;2024-01-15T00:52:51;17.20;;;7.00;;
78871;SDS011;68247;43.514;1.502;2024-01-15T00:55:17;18.33;;;6.97;;
78871;SDS011;68247;43.514;1.502;2024-01-15T00:57:42;14.60;;;7.97;;
78871;SDS011;68247;43.514;1.502;2024-01-15T01:00:08;15.67;;;8.00;;
78871;SDS011;68247;43.514;1.502;2024-01-15T01:02:34;15.75;;;7.45;;
78871;SDS011;68247;43.514;1.502;2024-01-15T01:04:59;25.70;;;8.00;;
78871;SDS011;68247;43.514;1.502;2024-01-15T01:07:25;15.77;;;7.20;;
78871;SDS011;68247;43.514;1.502;2024-01-15T01:09:50;15.35;;;6.90;;
78871;SDS011;68247;43.514;1.502;2024-01-15T01:12:16;14.20;;;6.53;;
78871;SDS011;68247;43.514;1.502;2024-01-15T01:14:42;14.15;;;6.63;;
78871;SDS011;68247;43.514;1.502;2024-01-15T01:17:07;16.70;;;6.57;;
78871;SDS011;68247;43.514;1.502;2024-01-15T01:19:32;11.17;;;6.43;;
78871;SDS011;68247;43.514;1.502;2024-01-15T01:21:58;11.60;;;6.17;;
78871;SDS011;68247;43.514;1.502;2024-01-15T01:24:23;11.53;;;6.50;;
78871;SDS011;68247;43.514;1.502;2024-01-15T01:26:49;14.02;;;6.07;;
78871;SDS011;68247;43.514;1.502;2024-01-15T01:29:14;14.53;;;7.13;;
78871;SDS011;68247;43.514;1.502;2024-01-15T01:31:46;15.37;;;7.53;;
78871;SDS011;68247;43.514;1.502;2024-01-15T01:34:15;14.68;;;7.10;;
78871;SDS011;68247;43.514;1.502;2024-01-15T01:36:41;13.00;;;7.20;;
78871;SDS011;68247;43.514;1.502;2024-01-15T01:39:07;16.27;;;7.10;;
78871;SDS011;68247;43.514;1.502;2024-01-15T01:41:32;20.15;;;7.47;;
78871;SDS011;68247;43.514;1.502;2024-01-15T01:43:58;16.73;;;8.00;;
78871;SDS011;68247;43.514;1.502;2024-01-15T01:46:23;19.90;;;8.40;;
78871;SDS011;68247;43.514;1.502;2024-01-15T01:48:51;17.77;;;8.30;;
78871;SDS011;68247;43.514;1.502;2024-01-15T01:51:17;18.33;;;8.57;;
78871;SDS011;68247;43.514;1.502;2024-01-15T01:53:43;19.70;;;9.02;;
78871;SDS011;68247;43.514;1.502;2024-01-15T01:56:09;20.92;;;9.75;;
78871;SDS011;68247;43.514;1.502;2024-01-15T01:58:34;20.33;;;9.05;;
78871;SDS011;68247;43.514;1.502;2024-01-15T02:01:00;23.48;;;9.20;;
78871;SDS011;68247;43.514;1.502;2024-01-15T02:03:29;20.33;;;9.23;;
78871;SDS011;68247;43.514;1.502;2024-01-15T02:05:55;25.80;;;9.95;;
78871;SDS011;68247;43.514;1.502;2024-01-15T02:08:21;20.58;;;9.95;;
78871;SDS011;68247;43.514;1.502;2024-01-15T02:10:47;23.10;;;10.30;;
78871;SDS011;68247;43.514;1.502;2024-01-15T02:13:12;21.93;;;10.17;;
78871;SDS011;68247;43.514;1.502;2024-01-15T02:15:37;27.83;;;10.60;;
78871;SDS011;68247;43.514;1.502;2024-01-15T02:18:04;24.90;;;10.65;;
78871;SDS011;68247;43.514;1.502;2024-01-15T02:20:32;23.65;;;10.98;;
78871;SDS011;68247;43.514;1.502;2024-01-15T02:23:10;24.75;;;11.18;;
78871;SDS011;68247;43.514;1.502;2024-01-15T02:25:37;24.17;;;11.15;;
78871;SDS011;68247;43.514;1.502;2024-01-15T02:28:10;25.67;;;11.00;;
78871;SDS011;68247;43.514;1.502;2024-01-15T02:30:40;24.98;;;10.90;;
78871;SDS011;68247;43.514;1.502;2024-01-15T02:33:07;25.90;;;11.40;;
78871;SDS011;68247;43.514;1.502;2024-01-15T02:35:33;27.70;;;10.93;;
78871;SDS011;68247;43.514;1.502;2024-01-15T02:38:01;27.38;;;10.50;;
78871;SDS011;68247;43.514;1.502;2024-01-15T02:40:27;25.58;;;11.40;;
78871;SDS011;68247;43.514;1.502;2024-01-15T02:42:53;26.05;;;11.00;;
78871;SDS011;68247;43.514;1.502;2024-01-15T02:45:18;28.33;;;11.83;;
78871;SDS011;68247;43.514;1.502;2024-01-15T02:47:44;23.75;;;11.32;;
78871;SDS011;68247;43.514;1.502;2024-01-15T02:50:10;25.63;;;10.90;;
78871;SDS011;68247;43.514;1.502;2024-01-15T02:52:35;20.63;;;10.40;;
78871;SDS011;68247;43.514;1.502;2024-01-15T02:55:00;25.67;;;10.07;;
78871;SDS011;68247;43.514;1.502;2024-01-15T02:57:26;23.80;;;11.10;;
78871;SDS011;68247;43.514;1.502;2024-01-15T02:59:51;28.87;;;11.80;;
78871;SDS011;68247;43.514;1.502;2024-01-15T03:02:17;26.27;;;11.35;;
78871;SDS011;68247;43.514;1.502;2024-01-15T03:04:43;26.27;;;11.67;;
78871;SDS011;68247;43.514;1.502;2024-01-15T03:07:08;29.73;;;11.98;;
78871;SDS011;68247;43.514;1.502;2024-01-15T03:09:34;25.00;;;11.70;;
78871;SDS011;68247;43.514;1.502;2024-01-15T03:11:59;24.27;;;10.80;;
78871;SDS011;68247;43.514;1.502;2024-01-15T03:14:25;21.37;;;11.20;;
78871;SDS011;68247;43.514;1.502;2024-01-15T03:16:51;25.38;;;11.48;;
78871;SDS011;68247;43.514;1.502;2024-01-15T03:19:17;23.45;;;10.82;;
78871;SDS011;68247;43.514;1.502;2024-01-15T03:21:42;24.30;;;10.67;;
78871;SDS011;68247;43.514;1.502;2024-01-15T03:24:07;23.00;;;9.93;;
78871;SDS011;68247;43.514;1.502;2024-01-15T03:26:33;24.70;;;11.03;;
78871;SDS011;68247;43.514;1.502;2024-01-15T03:28:58;23.77;;;11.60;;
78871;SDS011;68247;43.514;1.502;2024-01-15T03:31:23;23.03;;;10.63;;
78871;SDS011;68247;43.514;1.502;2024-01-15T03:33:49;25.70;;;11.43;;
78871;SDS011;68247;43.514;1.502;2024-01-15T03:36:14;23.65;;;11.60;;
78871;SDS011;68247;43.514;1.502;2024-01-15T03:38:40;25.43;;;11.33;;
78871;SDS011;68247;43.514;1.502;2024-01-15T03:41:06;21.67;;;10.77;;
78871;SDS011;68247;43.514;1.502;2024-01-15T03:43:32;22.87;;;10.50;;
78871;SDS011;68247;43.514;1.502;2024-01-15T03:45:57;22.07;;;10.63;;
78871;SDS011;68247;43.514;1.502;2024-01-15T03:48:22;24.03;;;11.77;;
78871;SDS011;68247;43.514;1.502;2024-01-15T03:50:48;25.47;;;10.87;;
78871;SDS011;68247;43.514;1.502;2024-01-15T03:53:13;23.63;;;11.60;;
78871;SDS011;68247;43.514;1.502;2024-01-15T03:55:38;23.27;;;10.73;;
78871;SDS011;68247;43.514;1.502;2024-01-15T03:58:04;25.77;;;10.80;;
78871;SDS011;68247;43.514;1.502;2024-01-15T04:00:29;22.27;;;10.60;;
78871;SDS011;68247;43.514;1.502;2024-01-15T04:02:55;28.13;;;11.37;;
78871;SDS011;68247;43.514;1.502;2024-01-15T04:05:20;22.30;;;10.83;;
78871;SDS011;68247;43.514;1.502;2024-01-15T04:07:48;24.08;;;11.27;;
78871;SDS011;68247;43.514;1.502;2024-01-15T04:10:14;25.90;;;10.73;;
78871;SDS011;68247;43.514;1.502;2024-01-15T04:12:39;22.53;;;11.10;;
78871;SDS011;68247;43.514;1.502;2024-01-15T04:15:05;21.58;;;11.20;;
78871;SDS011;68247;43.514;1.502;2024-01-15T04:17:30;23.03;;;10.90;;
78871;SDS011;68247;43.514;1.502;2024-01-15T04:19:56;22.33;;;11.40;;
78871;SDS011;68247;43.514;1.502;2024-01-15T04:22:21;22.50;;;11.50;;
78871;SDS011;68247;43.514;1.502;2024-01-15T04:24:47;23.77;;;11.38;;
78871;SDS011;68247;43.514;1.502;2024-01-15T04:27:13;22.77;;;10.97;;
78871;SDS011;68247;43.514;1.502;2024-01-15T04:29:38;20.58;;;10.52;;
78871;SDS011;68247;43.514;1.502;2024-01-15T04:32:04;23.07;;;10.53;;
78871;SDS011;68247;43.514;1.502;2024-01-15T04:34:30;20.75;;;11.15;;
78871;SDS011;68247;43.514;1.502;2024-01-15T04:36:55;20.37;;;11.20;;
78871;SDS011;68247;43.514;1.502;2024-01-15T04:39:21;20.87;;;10.50;;
78871;SDS011;68247;43.514;1.502;2024-01-15T04:41:47;21.88;;;10.32;;
78871;SDS011;68247;43.514;1.502;2024-01-15T04:44:13;18.48;;;10.30;;
78871;SDS011;68247;43.514;1.502;2024-01-15T04:46:38;20.90;;;10.27;;
78871;SDS011;68247;43.514;1.502;2024-01-15T04:49:03;20.37;;;10.87;;
78871;SDS011;68247;43.514;1.502;2024-01-15T04:51:29;22.57;;;10.70;;
78871;SDS011;68247;43.514;1.502;2024-01-15T04:53:54;27.23;;;11.35;;
78871;SDS011;68247;43.514;1.502;2024-01-15T04:56:20;21.93;;;10.77;;
78871;SDS011;68247;43.514;1.502;2024-01-15T04:58:45;25.37;;;11.67;;
78871;SDS011;68247;43.514;1.502;2024-01-15T05:01:11;22.10;;;11.43;;
78871;SDS011;68247;43.514;1.502;2024-01-15T05:03:37;24.10;;;11.33;;
78871;SDS011;68247;43.514;1.502;2024-01-15T05:06:02;22.97;;;10.87;;
78871;SDS011;68247;43.514;1.502;2024-01-15T05:08:28;20.98;;;10.73;;
78871;SDS011;68247;43.514;1.502;2024-01-15T05:10:53;23.27;;;12.27;;
78871;SDS011;68247;43.514;1.502;2024-01-15T05:13:18;22.33;;;11.23;;
78871;SDS011;68247;43.514;1.502;2024-01-15T05:15:44;25.30;;;11.67;;
78871;SDS011;68247;43.514;1.502;2024-01-15T05:18:09;22.47;;;11.00;;
78871;SDS011;68247;43.514;1.502;2024-01-15T05:20:35;21.73;;;10.77;;
78871;SDS011;68247;43.514;1.502;2024-01-15T05:23:00;20.40;;;11.20;;
78871;SDS011;68247;43.514;1.502;2024-01-15T05:25:25;27.80;;;11.20;;
78871;SDS011;68247;43.514;1.502;2024-01-15T05:27:51;29.47;;;11.63;;
78871;SDS011;68247;43.514;1.502;2024-01-15T05:30:16;25.02;;;11.60;;
78871;SDS011;68247;43.514;1.502;2024-01-15T05:32:42;26.83;;;11.97;;
78871;SDS011;68247;43.514;1.502;2024-01-15T05:35:07;22.93;;;11.00;;
78871;SDS011;68247;43.514;1.502;2024-01-15T05:37:32;24.37;;;11.53;;
78871;SDS011;68247;43.514;1.502;2024-01-15T05:39:58;22.80;;;11.17;;
78871;SDS011;68247;43.514;1.502;2024-01-15T05:42:23;21.33;;;10.57;;
78871;SDS011;68247;43.514;1.502;2024-01-15T05:44:49;23.47;;;11.50;;
78871;SDS011;68247;43.514;1.502;2024-01-15T05:47:14;20.23;;;11.07;;
78871;SDS011;68247;43.514;1.502;2024-01-15T05:49:40;21.33;;;11.17;;
78871;SDS011;68247;43.514;1.502;2024-01-15T05:52:05;29.25;;;12.85;;
78871;SDS011;68247;43.514;1.502;2024-01-15T05:54:31;25.00;;;11.60;;
78871;SDS011;68247;43.514;1.502;2024-01-15T05:56:56;24.33;;;13.20;;
78871;SDS011;68247;43.514;1.502;2024-01-15T05:59:22;27.60;;;12.80;;
78871;SDS011;68247;43.514;1.502;2024-01-15T06:01:47;26.67;;;13.05;;
78871;SDS011;68247;43.514;1.502;2024-01-15T06:04:12;25.47;;;12.37;;
78871;SDS011;68247;43.514;1.502;2024-01-15T06:06:38;26.87;;;13.50;;
78871;SDS011;68247;43.514;1.502;2024-01-15T06:09:03;25.70;;;13.33;;
78871;SDS011;68247;43.514;1.502;2024-01-15T06:11:33;28.70;;;14.15;;
78871;SDS011;68247;43.514;1.502;2024-01-15T06:13:59;28.77;;;14.52;;
78871;SDS011;68247;43.514;1.502;2024-01-15T06:16:28;33.10;;;15.40;;
78871;SDS011;68247;43.514;1.502;2024-01-15T06:18:54;32.13;;;14.38;;
78871;SDS011;68247;43.514;1.502;2024-01-15T06:21:19;35.83;;;14.80;;
78871;SDS011;68247;43.514;1.502;2024-01-15T06:23:44;31.57;;;14.30;;
78871;SDS011;68247;43.514;1.502;2024-01-15T06:26:13;36.10;;;14.90;;
78871;SDS011;68247;43.514;1.502;2024-01-15T06:28:38;30.50;;;14.20;;
78871;SDS011;68247;43.514;1.502;2024-01-15T06:31:03;30.43;;;14.27;;
78871;SDS011;68247;43.514;1.502;2024-01-15T06:33:30;29.33;;;14.57;;
78871;SDS011;68247;43.514;1.502;2024-01-15T06:35:56;30.10;;;14.27;;
78871;SDS011;68247;43.514;1.502;2024-01-15T06:38:21;34.70;;;14.33;;
78871;SDS011;68247;43.514;1.502;2024-01-15T06:40:47;35.75;;;15.05;;
78871;SDS011;68247;43.514;1.502;2024-01-15T06:43:13;33.95;;;15.10;;
78871;SDS011;68247;43.514;1.502;2024-01-15T06:45:39;43.42;;;15.90;;
78871;SDS011;68247;43.514;1.502;2024-01-15T06:48:05;47.30;;;17.90;;
78871;SDS011;68247;43.514;1.502;2024-01-15T06:50:31;49.60;;;17.27;;
78871;SDS011;68247;43.514;1.502;2024-01-15T06:52:56;49.30;;;17.15;;
78871;SDS011;68247;43.514;1.502;2024-01-15T06:55:22;53.47;;;18.83;;
78871;SDS011;68247;43.514;1.502;2024-01-15T06:57:47;66.63;;;20.90;;
78871;SDS011;68247;43.514;1.502;2024-01-15T07:00:13;63.20;;;18.87;;
78871;SDS011;68247;43.514;1.502;2024-01-15T07:02:39;71.25;;;18.77;;
78871;SDS011;68247;43.514;1.502;2024-01-15T07:05:04;64.27;;;18.47;;
78871;SDS011;68247;43.514;1.502;2024-01-15T07:07:32;76.03;;;18.95;;
78871;SDS011;68247;43.514;1.502;2024-01-15T07:09:58;68.93;;;18.87;;
78871;SDS011;68247;43.514;1.502;2024-01-15T07:12:23;69.03;;;18.63;;
78871;SDS011;68247;43.514;1.502;2024-01-15T07:14:49;99.95;;;20.77;;
78871;SDS011;68247;43.514;1.502;2024-01-15T07:17:14;139.90;;;24.50;;
78871;SDS011;68247;43.514;1.502;2024-01-15T07:19:40;66.07;;;22.00;;
78871;SDS011;68247;43.514;1.502;2024-01-15T07:22:06;120.13;;;24.03;;
78871;SDS011;68247;43.514;1.502;2024-01-15T07:24:31;168.35;;;26.67;;
78871;SDS011;68247;43.514;1.502;2024-01-15T07:26:59;143.02;;;25.73;;
78871;SDS011;68247;43.514;1.502;2024-01-15T07:29:24;104.93;;;21.02;;
78871;SDS011;68247;43.514;1.502;2024-01-15T07:31:50;107.23;;;21.30;;
78871;SDS011;68247;43.514;1.502;2024-01-15T07:34:16;118.28;;;22.17;;
78871;SDS011;68247;43.514;1.502;2024-01-15T07:36:43;73.40;;;18.17;;
78871;SDS011;68247;43.514;1.502;2024-01-15T07:39:09;111.13;;;20.27;;
78871;SDS011;68247;43.514;1.502;2024-01-15T07:41:34;96.90;;;20.27;;
78871;SDS011;68247;43.514;1.502;2024-01-15T07:44:00;85.03;;;19.13;;
78871;SDS011;68247;43.514;1.502;2024-01-15T07:46:25;99.57;;;20.37;;
78871;SDS011;68247;43.514;1.502;2024-01-15T07:48:51;85.07;;;20.13;;
78871;SDS011;68247;43.514;1.502;2024-01-15T07:51:21;111.47;;;20.92;;
78871;SDS011;68247;43.514;1.502;2024-01-15T07:53:47;128.85;;;22.33;;
78871;SDS011;68247;43.514;1.502;2024-01-15T07:56:13;118.63;;;23.97;;
78871;SDS011;68247;43.514;1.502;2024-01-15T07:58:38;93.53;;;21.88;;
78871;SDS011;68247;43.514;1.502;2024-01-15T08:01:03;86.13;;;20.38;;
78871;SDS011;68247;43.514;1.502;2024-01-15T08:03:29;84.87;;;19.73;;
78871;SDS011;68247;43.514;1.502;2024-01-15T08:05:54;82.07;;;20.23;;
78871;SDS011;68247;43.514;1.502;2024-01-15T08:08:22;78.82;;;18.55;;
78871;SDS011;68247;43.514;1.502;2024-01-15T08:10:48;76.38;;;18.05;;
78871;SDS011;68247;43.514;1.502;2024-01-15T08:13:14;74.33;;;19.13;;
78871;SDS011;68247;43.514;1.502;2024-01-15T08:15:40;68.95;;;18.35;;
78871;SDS011;68247;43.514;1.502;2024-01-15T08:18:06;62.00;;;17.20;;
78871;SDS011;68247;43.514;1.502;2024-01-15T08:20:31;70.78;;;17.27;;
78871;SDS011;68247;43.514;1.502;2024-01-15T08:22:57;64.63;;;17.47;;
78871;SDS011;68247;43.514;1.502;2024-01-15T08:25:22;58.40;;;16.03;;
78871;SDS011;68247;43.514;1.502;2024-01-15T08:27:47;63.00;;;16.40;;
78871;SDS011;68247;43.514;1.502;2024-01-15T08:30:13;60.10;;;18.23;;
78871;SDS011;68247;43.514;1.502;2024-01-15T08:32:39;56.10;;;16.57;;
78871;SDS011;68247;43.514;1.502;2024-01-15T08:35:07;60.92;;;16.48;;
78871;SDS011;68247;43.514;1.502;2024-01-15T08:37:33;59.00;;;17.02;;
78871;SDS011;68247;43.514;1.502;2024-01-15T08:39:59;47.70;;;15.63;;
78871;SDS011;68247;43.514;1.502;2024-01-15T08:42:24;52.73;;;16.20;;
78871;SDS011;68247;43.514;1.502;2024-01-15T08:44:50;50.33;;;16.47;;
78871;SDS011;68247;43.514;1.502;2024-01-15T08:47:15;52.90;;;17.88;;
78871;SDS011;68247;43.514;1.502;2024-01-15T08:49:41;47.38;;;18.23;;
78871;SDS011;68247;43.514;1.502;2024-01-15T08:52:09;51.05;;;19.65;;
78871;SDS011;68247;43.514;1.502;2024-01-15T08:54:34;58.67;;;20.25;;
78871;SDS011;68247;43.514;1.502;2024-01-15T08:57:00;50.90;;;19.20;;
78871;SDS011;68247;43.514;1.502;2024-01-15T08:59:25;52.27;;;20.00;;
78871;SDS011;68247;43.514;1.502;2024-01-15T09:01:51;51.90;;;20.23;;
78871;SDS011;68247;43.514;1.502;2024-01-15T09:04:17;51.97;;;20.33;;
78871;SDS011;68247;43.514;1.502;2024-01-15T09:06:45;60.67;;;21.17;;
78871;SDS011;68247;43.514;1.502;2024-01-15T09:09:14;49.15;;;19.08;;
78871;SDS011;68247;43.514;1.502;2024-01-15T09:11:40;48.93;;;18.23;;
78871;SDS011;68247;43.514;1.502;2024-01-15T09:14:06;56.67;;;18.33;;
78871;SDS011;68247;43.514;1.502;2024-01-15T09:16:31;51.28;;;17.00;;
78871;SDS011;68247;43.514;1.502;2024-01-15T09:18:57;47.27;;;18.07;;
78871;SDS011;68247;43.514;1.502;2024-01-15T09:21:22;51.40;;;16.93;;
78871;SDS011;68247;43.514;1.502;2024-01-15T09:23:49;51.20;;;16.20;;
78871;SDS011;68247;43.514;1.502;2024-01-15T09:26:15;59.58;;;17.45;;
78871;SDS011;68247;43.514;1.502;2024-01-15T09:28:40;48.83;;;17.17;;
78871;SDS011;68247;43.514;1.502;2024-01-15T09:31:06;53.03;;;18.33;;
78871;SDS011;68247;43.514;1.502;2024-01-15T09:33:31;48.03;;;17.17;;
78871;SDS011;68247;43.514;1.502;2024-01-15T09:35:56;59.80;;;17.73;;
78871;SDS011;68247;43.514;1.502;2024-01-15T09:38:22;55.23;;;18.17;;
78871;SDS011;68247;43.514;1.502;2024-01-15T09:40:49;49.85;;;16.67;;
78871;SDS011;68247;43.514;1.502;2024-01-15T09:43:14;52.77;;;17.93;;
78871;SDS011;68247;43.514;1.502;2024-01-15T09:45:40;55.05;;;17.70;;
78871;SDS011;68247;43.514;1.502;2024-01-15T09:48:06;59.05;;;18.35;;
78871;SDS011;68247;43.514;1.502;2024-01-15T09:50:32;54.05;;;17.98;;
78871;SDS011;68247;43.514;1.502;2024-01-15T09:52:57;44.53;;;15.50;;
78871;SDS011;68247;43.514;1.502;2024-01-15T09:55:23;49.13;;;18.30;;
78871;SDS011;68247;43.514;1.502;2024-01-15T09:57:48;49.23;;;17.10;;
78871;SDS011;68247;43.514;1.502;2024-01-15T10:00:17;40.28;;;17.02;;
78871;SDS011;68247;43.514;1.502;2024-01-15T10:02:44;44.00;;;16.35;;
78871;SDS011;68247;43.514;1.502;2024-01-15T10:05:10;40.33;;;15.40;;
78871;SDS011;68247;43.514;1.502;2024-01-15T10:07:36;40.50;;;14.77;;
78871;SDS011;68247;43.514;1.502;2024-01-15T10:10:02;33.17;;;13.60;;
78871;SDS011;68247;43.514;1.502;2024-01-15T10:12:32;37.00;;;14.70;;
78871;SDS011;68247;43.514;1.502;2024-01-15T10:14:58;34.58;;;13.13;;
78871;SDS011;68247;43.514;1.502;2024-01-15T10:17:24;31.40;;;12.60;;
78871;SDS011;68247;43.514;1.502;2024-01-15T10:19:52;30.80;;;12.90;;
78871;SDS011;68247;43.514;1.502;2024-01-15T10:22:17;36.63;;;14.70;;
78871;SDS011;68247;43.514;1.502;2024-01-15T10:24:45;37.15;;;14.27;;
78871;SDS011;68247;43.514;1.502;2024-01-15T10:27:13;33.25;;;13.63;;
78871;SDS011;68247;43.514;1.502;2024-01-15T10:29:40;33.50;;;15.20;;
78871;SDS011;68247;43.514;1.502;2024-01-15T10:32:07;36.15;;;14.60;;
78871;SDS011;68247;43.514;1.502;2024-01-15T10:34:33;32.20;;;13.27;;
78871;SDS011;68247;43.514;1.502;2024-01-15T10:37:02;30.48;;;13.48;;
78871;SDS011;68247;43.514;1.502;2024-01-15T10:39:28;32.00;;;15.10;;
78871;SDS011;68247;43.514;1.502;2024-01-15T10:41:55;32.73;;;14.00;;
78871;SDS011;68247;43.514;1.502;2024-01-15T10:44:20;32.45;;;13.13;;
78871;SDS011;68247;43.514;1.502;2024-01-15T10:46:45;37.37;;;14.77;;
78871;SDS011;68247;43.514;1.502;2024-01-15T10:49:12;33.83;;;14.50;;
78871;SDS011;68247;43.514;1.502;2024-01-15T10:51:37;32.10;;;13.50;;
78871;SDS011;68247;43.514;1.502;2024-01-15T10:54:04;29.20;;;13.18;;
78871;SDS011;68247;43.514;1.502;2024-01-15T10:56:30;29.73;;;13.00;;
78871;SDS011;68247;43.514;1.502;2024-01-15T10:58:58;31.83;;;13.77;;
78871;SDS011;68247;43.514;1.502;2024-01-15T11:01:23;34.17;;;15.17;;
78871;SDS011;68247;43.514;1.502;2024-01-15T11:03:49;35.75;;;15.00;;
78871;SDS011;68247;43.514;1.502;2024-01-15T11:06:18;34.53;;;15.23;;
78871;SDS011;68247;43.514;1.502;2024-01-15T11:08:50;35.13;;;15.35;;
78871;SDS011;68247;43.514;1.502;2024-01-15T11:11:17;38.72;;;16.02;;
78871;SDS011;68247;43.514;1.502;2024-01-15T11:13:42;34.77;;;15.23;;
78871;SDS011;68247;43.514;1.502;2024-01-15T11:16:13;31.70;;;14.80;;
78871;SDS011;68247;43.514;1.502;2024-01-15T11:18:41;36.28;;;15.73;;
78871;SDS011;68247;43.514;1.502;2024-01-15T11:26:28;38.20;;;16.40;;
78871;SDS011;68247;43.514;1.502;2024-01-15T11:28:55;36.78;;;16.27;;
78871;SDS011;68247;43.514;1.502;2024-01-15T11:31:57;37.35;;;16.27;;
78871;SDS011;68247;43.514;1.502;2024-01-15T11:34:15;43.90;;;18.10;;
78871;SDS011;68247;43.514;1.502;2024-01-15T11:41:57;43.45;;;18.13;;
78871;SDS011;68247;43.514;1.502;2024-01-15T11:44:23;41.30;;;17.40;;
78871;SDS011;68247;43.514;1.502;2024-01-15T11:52:07;37.35;;;16.38;;
78871;SDS011;68247;43.514;1.502;2024-01-15T11:54:37;41.00;;;17.43;;
78871;SDS011;68247;43.514;1.502;2024-01-15T11:57:04;45.33;;;18.60;;
78871;SDS011;68247;43.514;1.502;2024-01-15T11:59:34;44.05;;;19.30;;
78871;SDS011;68247;43.514;1.502;2024-01-15T12:02:00;41.23;;;18.87;;
78871;SDS011;68247;43.514;1.502;2024-01-15T12:04:26;44.50;;;19.80;;
78871;SDS011;68247;43.514;1.502;2024-01-15T12:06:52;45.10;;;18.30;;
78871;SDS011;68247;43.514;1.502;2024-01-15T12:09:19;43.65;;;20.42;;
78871;SDS011;68247;43.514;1.502;2024-01-15T12:11:46;49.55;;;21.00;;
78871;SDS011;68247;43.514;1.502;2024-01-15T12:14:16;45.15;;;19.58;;
78871;SDS011;68247;43.514;1.502;2024-01-15T12:16:42;50.83;;;21.50;;
78871;SDS011;68247;43.514;1.502;2024-01-15T12:19:07;49.00;;;19.70;;
78871;SDS011;68247;43.514;1.502;2024-01-15T12:21:32;48.70;;;20.40;;
78871;SDS011;68247;43.514;1.502;2024-01-15T12:23:58;45.17;;;20.67;;
78871;SDS011;68247;43.514;1.502;2024-01-15T12:26:24;46.63;;;20.02;;
78871;SDS011;68247;43.514;1.502;2024-01-15T12:28:50;47.97;;;20.50;;
78871;SDS011;68247;43.514;1.502;2024-01-15T12:31:16;46.55;;;19.45;;
78871;SDS011;68247;43.514;1.502;2024-01-15T12:33:41;44.73;;;19.37;;
78871;SDS011;68247;43.514;1.502;2024-01-15T12:36:07;43.53;;;20.20;;
78871;SDS011;68247;43.514;1.502;2024-01-15T12:38:32;40.77;;;19.53;;
78871;SDS011;68247;43.514;1.502;2024-01-15T12:40:57;38.60;;;19.27;;
78871;SDS011;68247;43.514;1.502;2024-01-15T12:43:25;41.65;;;19.33;;
78871;SDS011;68247;43.514;1.502;2024-01-15T12:45:51;39.60;;;19.80;;
78871;SDS011;68247;43.514;1.502;2024-01-15T12:48:16;43.57;;;19.53;;
78871;SDS011;68247;43.514;1.502;2024-01-15T12:50:42;43.33;;;19.92;;
78871;SDS011;68247;43.514;1.502;2024-01-15T12:53:08;49.47;;;21.42;;
78871;SDS011;68247;43.514;1.502;2024-01-15T12:55:34;47.43;;;21.37;;
78871;SDS011;68247;43.514;1.502;2024-01-15T12:57:59;50.30;;;20.83;;
78871;SDS011;68247;43.514;1.502;2024-01-15T13:00:25;47.03;;;21.13;;
78871;SDS011;68247;43.514;1.502;2024-01-15T13:02:51;50.10;;;21.45;;
78871;SDS011;68247;43.514;1.502;2024-01-15T13:05:16;56.50;;;22.97;;
78871;SDS011;68247;43.514;1.502;2024-01-15T13:07:42;49.05;;;22.45;;
78871;SDS011;68247;43.514;1.502;2024-01-15T13:10:07;55.53;;;23.37;;
78871;SDS011;68247;43.514;1.502;2024-01-15T13:12:34;58.00;;;25.27;;
78871;SDS011;68247;43.514;1.502;2024-01-15T13:14:59;61.87;;;25.70;;
78871;SDS011;68247;43.514;1.502;2024-01-15T13:17:28;57.50;;;25.77;;
78871;SDS011;68247;43.514;1.502;2024-01-15T13:19:53;34.87;;;16.83;;
78871;SDS011;68247;43.514;1.502;2024-01-15T13:22:19;40.47;;;18.37;;
78871;SDS011;68247;43.514;1.502;2024-01-15T13:24:45;45.03;;;20.58;;
78871;SDS011;68247;43.514;1.502;2024-01-15T13:27:11;26.27;;;14.07;;
78871;SDS011;68247;43.514;1.502;2024-01-15T13:29:36;26.60;;;14.30;;
78871;SDS011;68247;43.514;1.502;2024-01-15T13:32:02;19.27;;;10.80;;
78871;SDS011;68247;43.514;1.502;2024-01-15T13:34:28;27.00;;;16.00;;
78871;SDS011;68247;43.514;1.502;2024-01-15T13:36:54;20.58;;;13.55;;
78871;SDS011;68247;43.514;1.502;2024-01-15T13:39:19;23.40;;;14.03;;
78871;SDS011;68247;43.514;1.502;2024-01-15T13:41:46;17.48;;;11.18;;
78871;SDS011;68247;43.514;1.502;2024-01-15T13:44:11;17.83;;;10.45;;
78871;SDS011;68247;43.514;1.502;2024-01-15T13:46:37;20.17;;;10.93;;
78871;SDS011;68247;43.514;1.502;2024-01-15T13:49:03;17.60;;;11.25;;
78871;SDS011;68247;43.514;1.502;2024-01-15T13:51:30;20.93;;;11.07;;
78871;SDS011;68247;43.514;1.502;2024-01-15T13:53:56;13.90;;;8.52;;
78871;SDS011;68247;43.514;1.502;2024-01-15T13:56:21;16.23;;;9.40;;
78871;SDS011;68247;43.514;1.502;2024-01-15T13:58:47;15.27;;;10.03;;
78871;SDS011;68247;43.514;1.502;2024-01-15T14:01:13;15.25;;;8.63;;
78871;SDS011;68247;43.514;1.502;2024-01-15T14:03:38;12.90;;;8.10;;
78871;SDS011;68247;43.514;1.502;2024-01-15T14:06:04;12.80;;;8.13;;
78871;SDS011;68247;43.514;1.502;2024-01-15T14:08:34;14.63;;;8.75;;
78871;SDS011;68247;43.514;1.502;2024-01-15T14:11:00;14.63;;;9.57;;
78871;SDS011;68247;43.514;1.502;2024-01-15T14:13:26;16.67;;;8.87;;
78871;SDS011;68247;43.514;1.502;2024-01-15T14:15:51;15.07;;;9.02;;
78871;SDS011;68247;43.514;1.502;2024-01-15T14:18:17;11.65;;;6.63;;
78871;SDS011;68247;43.514;1.502;2024-01-15T14:20:43;13.60;;;7.07;;
78871;SDS011;68247;43.514;1.502;2024-01-15T14:23:08;11.27;;;5.80;;
78871;SDS011;68247;43.514;1.502;2024-01-15T14:25:34;10.07;;;5.20;;
78871;SDS011;68247;43.514;1.502;2024-01-15T14:27:59;10.00;;;5.60;;
78871;SDS011;68247;43.514;1.502;2024-01-15T14:30:25;10.20;;;5.70;;
78871;SDS011;68247;43.514;1.502;2024-01-15T14:32:50;2.13;;;1.60;;